createdAt,value
2023-03-05T00:01:18.403Z,3.26
2023-03-05T00:05:21.212Z,3.30
2023-03-05T00:09:25.147Z,3.28
2023-03-05T00:13:28.079Z,3.23
2023-03-05T00:17:31.037Z,3.24
2023-03-05T00:21:39.779Z,3.30
2023-03-05T00:25:42.891Z,3.39
2023-03-05T00:29:48.652Z,3.50
2023-03-05T00:34:19.765Z,3.56
2023-03-05T00:38:22.732Z,3.53
2023-03-05T00:42:25.602Z,3.52
2023-03-05T00:46:29.278Z,3.49
2023-03-05T00:50:36.052Z,3.40
2023-03-05T00:54:38.793Z,3.28
2023-03-05T00:58:41.785Z,3.22
2023-03-05T01:02:48.469Z,3.24
2023-03-05T01:06:51.467Z,3.29
2023-03-05T01:10:54.816Z,3.25
2023-03-05T01:14:57.854Z,3.29
2023-03-05T01:19:01.892Z,3.36
2023-03-05T01:23:08.061Z,3.43
2023-03-05T01:27:10.822Z,3.44
2023-03-05T01:31:13.662Z,3.42
2023-03-05T01:35:27.361Z,3.43
2023-03-05T01:39:30.267Z,3.42
2023-03-05T01:43:33.132Z,3.42
2023-03-05T01:47:36.753Z,3.38
2023-03-05T01:51:56.654Z,3.24
2023-03-05T01:55:59.589Z,3.09
2023-03-05T02:00:09.364Z,3.00
2023-03-05T02:04:27.671Z,2.93
2023-03-05T02:08:30.572Z,2.91
2023-03-05T02:12:33.348Z,2.92
2023-03-05T02:16:38.130Z,3.04
2023-03-05T02:20:49.267Z,3.05
2023-03-05T02:24:52.288Z,3.02
2023-03-05T02:28:59.280Z,2.97
2023-03-05T02:33:02.386Z,2.94
2023-03-05T02:38:15.784Z,2.91
2023-03-05T02:42:18.701Z,2.89
2023-03-05T02:46:22.421Z,2.93
2023-03-05T02:50:52.883Z,3.05
2023-03-05T02:55:50.347Z,3.04
2023-03-05T02:59:53.330Z,2.95
2023-03-05T03:03:58.948Z,2.87
2023-03-05T03:08:28.269Z,2.78
2023-03-05T03:12:40.806Z,2.69
2023-03-05T03:17:07.843Z,2.64
2023-03-05T03:21:19.649Z,2.60
2023-03-05T03:25:23.102Z,2.58
2023-03-05T03:29:28.476Z,2.56
2023-03-05T03:33:31.930Z,2.53
2023-03-05T03:37:34.726Z,2.50
2023-03-05T03:41:41.657Z,2.48
2023-03-05T03:45:44.591Z,2.49
2023-03-05T03:55:35.868Z,2.45
2023-03-05T03:59:39.105Z,2.47
2023-03-05T04:03:41.852Z,2.50
2023-03-05T04:07:45.455Z,2.53
2023-03-05T04:12:39.520Z,2.54
2023-03-05T04:16:42.249Z,2.60
2023-03-05T04:20:45.047Z,2.58
2023-03-05T04:24:48.723Z,2.63
2023-03-05T04:34:38.249Z,2.60
2023-03-05T04:38:41.031Z,2.59
2023-03-05T04:42:44.340Z,2.58
2023-03-05T04:46:47.152Z,2.60
2023-03-05T04:50:49.965Z,2.66
2023-03-05T04:54:54.393Z,2.72
2023-03-05T04:59:23.467Z,2.73
2023-03-05T05:03:26.536Z,2.78
2023-03-05T05:08:24.893Z,2.82
2023-03-05T05:12:30.963Z,2.85
2023-03-05T05:16:34.261Z,2.87
2023-03-05T05:20:38.963Z,2.92
2023-03-05T05:24:42.062Z,2.91
2023-03-05T05:29:50.212Z,2.94
2023-03-05T05:33:53.010Z,2.97
2023-03-05T05:37:55.884Z,3.00
2023-03-05T05:41:58.594Z,3.00
2023-03-05T05:46:04.974Z,2.91
2023-03-05T05:50:08.072Z,2.88
2023-03-05T05:54:14.736Z,2.83
2023-03-05T05:58:55.344Z,2.80
2023-03-05T06:02:58.237Z,2.79
2023-03-05T06:12:37.330Z,2.75
2023-03-05T06:16:40.289Z,2.74
2023-03-05T06:20:43.319Z,2.78
2023-03-05T06:24:46.061Z,2.87
2023-03-05T06:28:49.157Z,2.86
2023-03-05T06:32:52.177Z,2.87
2023-03-05T06:42:42.075Z,2.83
2023-03-05T06:46:44.838Z,2.87
2023-03-05T06:50:47.641Z,2.88
2023-03-05T06:55:15.374Z,2.92
2023-03-05T06:59:18.213Z,2.86
2023-03-05T07:03:21.116Z,2.85
2023-03-05T07:07:23.843Z,2.80
2023-03-05T07:11:27.800Z,2.80
2023-03-05T07:16:34.753Z,2.84
2023-03-05T07:20:37.829Z,2.77
2023-03-05T07:24:40.603Z,2.70
2023-03-05T07:28:43.971Z,2.64
2023-03-05T07:32:46.870Z,2.56
2023-03-05T07:36:52.978Z,2.58
2023-03-05T07:40:55.683Z,2.47
2023-03-05T07:45:16.250Z,2.63
2023-03-05T07:49:19.012Z,2.67
2023-03-05T07:53:28.474Z,2.58
2023-03-05T07:57:31.333Z,2.66
2023-03-05T08:01:35.045Z,2.68
2023-03-05T08:06:11.345Z,2.81
2023-03-05T08:10:14.124Z,2.85
2023-03-05T08:14:24.336Z,2.82
2023-03-05T08:19:18.782Z,2.77
2023-03-05T08:23:21.586Z,2.36
2023-03-05T08:27:24.603Z,1.99
2023-03-05T08:31:30.279Z,1.83
2023-03-05T08:35:37.859Z,1.82
2023-03-05T08:39:40.808Z,1.89
2023-03-05T08:43:43.679Z,2.19
2023-03-05T08:47:52.794Z,2.45
2023-03-05T08:51:55.485Z,2.77
2023-03-05T08:56:14.936Z,3.02
2023-03-05T09:00:18.184Z,3.25
2023-03-05T09:18:14.156Z,3.69
2023-03-05T09:22:18.018Z,3.57
2023-03-05T09:26:21.244Z,3.57
2023-03-05T09:30:24.192Z,3.58
2023-03-05T09:34:27.246Z,3.69
2023-03-05T09:39:27.127Z,3.92
2023-03-05T09:55:30.689Z,4.10
2023-03-05T09:59:40.976Z,4.00
2023-03-05T10:03:43.702Z,4.00
2023-03-05T10:08:13.536Z,3.85
2023-03-05T10:18:44.246Z,4.03
2023-03-05T10:23:26.809Z,4.14
2023-03-05T10:33:02.628Z,3.99
2023-03-05T10:37:51.099Z,3.90
2023-03-05T10:42:31.458Z,3.88
2023-03-05T10:46:37.593Z,3.88
2023-03-05T10:50:50.795Z,3.82
2023-03-05T10:54:53.678Z,4.03
2023-03-05T10:59:49.157Z,4.31
2023-03-05T11:04:04.068Z,4.72
2023-03-05T11:13:54.827Z,4.97
2023-03-05T11:24:14.495Z,5.49
2023-03-05T11:28:32.194Z,5.75
2023-03-05T11:32:36.097Z,5.90
2023-03-05T11:36:44.352Z,5.92
2023-03-05T11:40:48.678Z,5.84
2023-03-05T11:44:56.014Z,5.59
2023-03-05T11:48:58.833Z,5.57
2023-03-05T11:53:37.390Z,5.50
2023-03-05T11:58:26.851Z,5.48
2023-03-05T12:02:29.681Z,5.52
2023-03-05T12:07:05.498Z,5.61
2023-03-05T12:11:17.980Z,5.69
2023-03-05T12:15:46.730Z,5.69
2023-03-05T12:25:46.527Z,5.45
2023-03-05T12:29:54.424Z,5.37
2023-03-05T12:33:58.068Z,5.29
2023-03-05T12:38:58.992Z,5.23
2023-03-05T12:43:36.309Z,5.25
2023-03-05T12:47:40.752Z,5.23
2023-03-05T12:51:45.484Z,5.04
2023-03-05T12:55:48.348Z,4.58
2023-03-05T13:00:11.429Z,4.09
2023-03-05T13:04:22.489Z,3.42
2023-03-05T13:08:26.714Z,2.89
2023-03-05T13:12:30.496Z,2.38
2023-03-05T13:16:38.841Z,2.16
2023-03-05T13:21:31.573Z,1.92
2023-03-05T13:25:34.491Z,1.98
2023-03-05T13:29:51.817Z,2.11
2023-03-05T13:33:59.396Z,2.41
2023-03-05T13:38:02.330Z,2.86
2023-03-05T13:42:22.806Z,3.26
2023-03-05T13:46:38.547Z,3.45
2023-03-05T13:50:41.422Z,3.56
2023-03-05T13:54:44.276Z,3.61
2023-03-05T13:59:01.326Z,3.68
2023-03-05T14:03:27.102Z,3.75
2023-03-05T14:07:38.227Z,3.95
2023-03-05T14:11:41.113Z,4.06
2023-03-05T14:16:05.054Z,4.17
2023-03-05T14:20:31.075Z,4.15
2023-03-05T14:25:43.419Z,4.13
2023-03-05T14:29:46.709Z,4.16
2023-03-05T14:33:51.146Z,4.13
2023-03-05T14:37:56.939Z,4.12
2023-03-05T14:47:38.656Z,4.15
2023-03-05T14:52:37.630Z,3.96
2023-03-05T14:56:40.402Z,3.69
2023-03-05T15:00:43.763Z,3.61
2023-03-05T15:04:47.386Z,3.47
2023-03-05T15:09:13.304Z,3.54
2023-03-05T15:13:17.695Z,3.45
2023-03-05T15:17:34.707Z,3.40
2023-03-05T15:21:37.556Z,3.34
2023-03-05T15:25:40.614Z,3.30
2023-03-05T15:29:43.597Z,3.37
2023-03-05T15:33:48.852Z,3.43
2023-03-05T15:37:52.565Z,3.42
2023-03-05T15:41:56.028Z,3.34
2023-03-05T15:45:59.059Z,3.34
2023-03-05T15:50:02.194Z,3.31
2023-03-05T15:54:05.795Z,3.25
2023-03-05T15:59:17.393Z,3.21
2023-03-05T16:03:20.186Z,3.19
2023-03-05T16:07:23.866Z,3.13
2023-03-05T16:11:27.734Z,3.06
2023-03-05T16:15:33.058Z,3.02
2023-03-05T16:19:42.199Z,2.98
2023-03-05T16:23:45.044Z,2.94
2023-03-05T16:27:47.832Z,3.02
2023-03-05T16:32:05.122Z,3.09
2023-03-05T16:36:11.296Z,3.09
2023-03-05T16:40:14.393Z,3.16
2023-03-05T16:44:24.080Z,3.15
2023-03-05T16:48:38.449Z,3.11
2023-03-05T16:52:44.822Z,3.04
2023-03-05T16:56:54.004Z,2.91
2023-03-05T17:01:04.645Z,2.82
2023-03-05T17:05:09.656Z,2.72
2023-03-05T17:10:07.417Z,2.64
2023-03-05T17:14:10.195Z,2.55
2023-03-05T17:18:48.800Z,2.50
2023-03-05T17:22:51.564Z,2.45
2023-03-05T17:27:22.677Z,2.44
2023-03-05T17:31:25.767Z,2.51
2023-03-05T17:35:29.592Z,2.53
2023-03-05T17:39:58.436Z,2.60
2023-03-05T17:44:02.260Z,2.56
2023-03-05T17:48:05.528Z,2.49
2023-03-05T17:52:09.678Z,2.46
2023-03-05T17:56:17.123Z,2.45
2023-03-05T18:00:25.420Z,2.44
2023-03-05T18:04:28.550Z,2.34
2023-03-05T18:08:31.782Z,2.28
2023-03-05T18:12:35.317Z,2.26
2023-03-05T18:16:38.153Z,2.33
2023-03-05T18:20:41.927Z,2.19
2023-03-05T18:24:44.621Z,2.11
2023-03-05T18:28:49.907Z,2.06
2023-03-05T18:32:52.773Z,2.00
2023-03-05T18:37:04.574Z,1.89
2023-03-05T18:41:08.369Z,1.91
2023-03-05T18:45:14.400Z,1.88
2023-03-05T18:49:17.330Z,1.85
2023-03-05T18:53:22.139Z,1.82
2023-03-05T18:57:25.176Z,1.80
2023-03-05T19:01:28.470Z,1.77
2023-03-05T19:05:32.302Z,1.77
2023-03-05T19:10:03.451Z,1.76
2023-03-05T19:14:06.225Z,1.75
2023-03-05T19:18:09.284Z,1.76
2023-03-05T19:22:12.088Z,1.72
2023-03-05T19:26:15.163Z,1.72
2023-03-05T19:30:18.385Z,1.76
2023-03-05T19:34:21.783Z,1.78
2023-03-05T19:38:24.729Z,1.78
2023-03-05T19:42:27.630Z,1.83
2023-03-05T19:46:31.388Z,1.85
2023-03-05T19:50:34.876Z,1.87
2023-03-05T19:54:37.940Z,1.90
2023-03-05T19:58:45.302Z,1.90
2023-03-05T20:02:48.762Z,1.91
2023-03-05T20:06:52.158Z,1.92
2023-03-05T20:10:55.389Z,1.92
2023-03-05T20:14:58.541Z,1.89
2023-03-05T20:19:03.217Z,1.89
2023-03-05T20:23:06.864Z,1.85
2023-03-05T20:27:10.033Z,1.85
2023-03-05T20:31:18.703Z,1.87
2023-03-05T20:35:27.717Z,1.89
2023-03-05T20:39:39.358Z,1.96
2023-03-05T20:43:51.334Z,2.02
2023-03-05T20:47:57.204Z,2.07
2023-03-05T20:52:00.149Z,2.11
2023-03-05T20:56:02.938Z,2.12
2023-03-05T21:00:07.817Z,2.11
2023-03-05T21:04:11.687Z,2.04
2023-03-05T21:08:14.568Z,2.04
2023-03-05T21:12:17.759Z,2.05
2023-03-05T21:16:23.561Z,2.08
2023-03-05T21:20:29.942Z,2.14
2023-03-05T21:24:44.010Z,2.18
2023-03-05T21:28:48.834Z,2.22
2023-03-05T21:32:52.557Z,2.25
2023-03-05T21:36:56.733Z,2.28
2023-03-05T21:41:00.228Z,2.35
2023-03-05T21:45:03.472Z,2.40
2023-03-05T21:49:06.702Z,2.43
2023-03-05T21:53:10.576Z,2.34
2023-03-05T21:57:13.905Z,2.29
2023-03-05T22:01:19.490Z,2.21
2023-03-05T22:05:22.534Z,2.11
2023-03-05T22:09:25.578Z,2.06
2023-03-05T22:13:29.287Z,2.00
2023-03-05T22:17:32.155Z,1.98
2023-03-05T22:21:35.138Z,1.98
2023-03-05T22:25:38.989Z,2.01
2023-03-05T22:29:42.002Z,2.01
2023-03-05T22:33:45.766Z,2.02
2023-03-05T22:37:48.860Z,2.01
2023-03-05T22:41:51.749Z,1.94
2023-03-05T22:45:54.940Z,1.94
2023-03-05T22:49:58.100Z,1.90
2023-03-05T22:54:02.370Z,1.85
2023-03-05T22:58:05.268Z,1.81
2023-03-05T23:02:09.466Z,1.75
2023-03-05T23:06:12.954Z,1.68
2023-03-05T23:10:28.777Z,1.59
2023-03-05T23:14:32.077Z,1.51
2023-03-05T23:18:35.371Z,1.52
2023-03-05T23:22:40.274Z,1.52
2023-03-05T23:26:47.190Z,1.47
2023-03-05T23:30:50.188Z,1.45
2023-03-05T23:34:56.096Z,1.39
2023-03-05T23:38:59.380Z,1.35
2023-03-05T23:43:03.123Z,1.32
2023-03-05T23:47:06.293Z,1.33
2023-03-05T23:51:10.944Z,1.37
2023-03-05T23:55:25.959Z,1.42
2023-03-05T23:59:29.004Z,1.44
